OPLA/LHE METAR and TAF weather

Enter ICAO airport designator
Station Type Date Time Source
OPLA METAR 2021/06/24 05:30 UTC NOAA

OPLA 240530Z 06018G30KT 3000 DRDU SCT040 30/18 Q1004 TEMPO 34020G40KT 0800 DSTSRA FEW030CB RMK QFE976 RMK A29.65


Station Type Date Time Source
OPLA Decoded METAR 2021/06/24 05:30 UTC NOAA

Lahore Airport, Pakistan (OPLA) 31-31N 074-24E 217M
Jun 24, 2021 - 01:30 AM EDT / 2021.06.24 0530 UTC
Wind: from the ENE (060 degrees) at 21 MPH (18 KT) gusting to 35 MPH (30 KT):0
Visibility: 1 mile(s):0
Sky conditions: partly cloudy
Weather: low drifting widespread dust; Cumulonimbus clouds observed
Temperature: 86 F (30 C)
Dew Point: 64 F (18 C)
Relative Humidity: 48%
Pressure (altimeter): 29.65 in. Hg (1004 hPa)
ob: OPLA 240530Z 06018G30KT 3000 DRDU SCT040 30/18 Q1004 TEMPO 34020G40KT 0800 DSTSRA FEW030CB RMK QFE976 RMK A29.65
cycle: 5

Station Type Date Time Source
OPLA TAF 2021/06/24 06:58 UTC NOAA

TAF OPLA 240345Z 2406/2512 13012KT 4000 HZ SCT040 SCT100 TX40/2410Z TN28/2500Z
TEMPO 2407/2410Z 33015G35KT 0800 DSTSRA FEW030CB SCT040 BKN100
FM241600 16010KT 4000 FU SCT100
TEMPO 2500/2504 33015G35KT 2000 TSRA FEW030CB SCT040 BKN100

Example: see airport list